createdAt,value
2018-03-15T16:01:43.710Z,11.68
2018-03-15T16:06:53.562Z,11.45
2018-03-15T16:09:28.614Z,9.20
2018-03-15T16:11:57.952Z,9.40
2018-03-15T16:14:32.288Z,10.70
2018-03-15T16:17:04.818Z,10.23
2018-03-15T16:22:14.780Z,11.45
2018-03-15T16:24:48.186Z,10.37
2018-03-15T16:27:17.296Z,11.57
2018-03-15T16:29:50.203Z,11.15
2018-03-15T16:32:22.992Z,11.87
2018-03-15T16:34:52.073Z,11.13
2018-03-15T16:37:29.648Z,11.10
2018-03-15T16:42:34.493Z,12.05
2018-03-15T16:45:07.107Z,11.83
2018-03-15T16:47:36.168Z,12.73
2018-03-15T16:50:05.219Z,12.90
2018-03-15T16:52:34.404Z,12.68
2018-03-15T16:55:12.723Z,11.77
2018-03-15T16:57:41.773Z,11.10
2018-03-15T17:02:46.108Z,12.70
2018-03-15T17:05:18.323Z,11.20
2018-03-15T17:07:48.041Z,12.20
2018-03-15T17:10:17.093Z,12.23
2018-03-15T17:12:47.060Z,11.17
2018-03-15T17:15:31.076Z,11.83
2018-03-15T17:20:42.484Z,11.82
2018-03-15T17:23:11.540Z,11.55
2018-03-15T17:25:40.658Z,11.60
2018-03-15T17:28:10.207Z,12.03
2018-03-15T17:30:39.519Z,12.10
2018-03-15T17:33:09.523Z,11.63
2018-03-15T17:35:38.571Z,11.70
2018-03-15T17:38:07.794Z,11.40
2018-03-15T17:40:36.844Z,11.47
2018-03-15T17:43:11.502Z,13.10
2018-03-15T17:45:40.560Z,11.70
2018-03-15T17:48:09.762Z,12.20
2018-03-15T17:50:38.816Z,11.80
2018-03-15T17:55:44.237Z,13.68
2018-03-15T17:58:13.518Z,13.77
2018-03-15T18:00:42.604Z,12.60
2018-03-15T18:05:53.355Z,14.20
2018-03-15T18:08:23.313Z,12.50
2018-03-15T18:10:52.586Z,12.90
2018-03-15T18:13:21.728Z,13.50
2018-03-15T18:16:06.153Z,12.73
2018-03-15T18:18:35.230Z,12.87
2018-03-15T18:21:12.172Z,14.45
2018-03-15T18:23:41.518Z,12.50
2018-03-15T18:26:10.674Z,12.63
2018-03-15T18:28:40.024Z,12.82
2018-03-15T18:31:13.483Z,12.70
2018-03-15T18:33:42.522Z,14.00
2018-03-15T18:36:16.274Z,13.07
2018-03-15T18:38:45.319Z,13.90
2018-03-15T18:41:27.068Z,13.37
2018-03-15T18:43:56.424Z,13.57
2018-03-15T18:46:25.469Z,15.00
2018-03-15T18:48:54.524Z,13.20
2018-03-15T18:51:49.515Z,12.37
2018-03-15T18:56:53.920Z,15.30
2018-03-15T18:59:33.542Z,14.40
2018-03-15T19:02:02.778Z,14.90
2018-03-15T19:07:08.235Z,14.45
2018-03-15T19:09:44.976Z,15.10
2018-03-15T19:12:14.051Z,13.67
2018-03-15T19:14:43.315Z,14.73
2018-03-15T19:17:12.376Z,14.07
2018-03-15T19:19:41.452Z,13.07
2018-03-15T19:22:10.652Z,13.20
2018-03-15T19:24:39.699Z,16.20
2018-03-15T19:27:08.759Z,17.65
2018-03-15T19:29:37.813Z,15.47
2018-03-15T19:32:07.017Z,15.40
2018-03-15T19:34:43.559Z,14.43
2018-03-15T19:37:12.815Z,14.80
2018-03-15T19:39:46.970Z,13.43
2018-03-15T19:42:26.144Z,15.35
2018-03-15T19:44:55.322Z,15.60
2018-03-15T19:49:59.580Z,16.20
2018-03-15T19:52:28.659Z,14.40
2018-03-15T19:54:57.684Z,14.23
2018-03-15T19:57:28.680Z,13.93
2018-03-15T19:59:58.483Z,14.50
2018-03-15T20:02:27.746Z,14.20
2018-03-15T20:04:57.015Z,16.73
2018-03-15T20:07:26.067Z,17.30
2018-03-15T20:09:55.229Z,15.47
2018-03-15T20:12:24.279Z,18.00
2018-03-15T20:14:56.922Z,16.53
2018-03-15T20:17:26.017Z,16.37
2018-03-15T20:20:07.116Z,18.83
2018-03-15T20:22:41.485Z,15.50
2018-03-15T20:25:11.823Z,15.90
2018-03-15T20:27:46.271Z,15.70
2018-03-15T20:30:18.752Z,14.50
2018-03-15T20:32:53.346Z,14.60
2018-03-15T20:37:57.581Z,16.00
2018-03-15T20:40:40.323Z,15.70
2018-03-15T20:43:12.848Z,14.10
2018-03-15T20:45:47.257Z,14.10
2018-03-15T20:48:22.163Z,13.63
2018-03-15T20:50:51.227Z,14.50
2018-03-15T20:55:56.527Z,16.70
2018-03-15T20:58:27.511Z,13.77
2018-03-15T21:00:56.784Z,17.50
2018-03-15T21:06:03.295Z,16.70
2018-03-15T21:08:35.884Z,23.10
2018-03-15T21:11:05.888Z,14.97
2018-03-15T21:13:34.938Z,14.10
2018-03-15T21:16:07.640Z,15.47
2018-03-15T21:18:36.687Z,12.37
2018-03-15T21:21:09.540Z,16.08
2018-03-15T21:23:38.608Z,14.27
2018-03-15T21:26:09.572Z,13.60
2018-03-15T21:31:14.246Z,13.80
2018-03-15T21:33:43.953Z,14.37
2018-03-15T21:36:13.992Z,12.03
2018-03-15T21:38:44.273Z,13.20
2018-03-15T21:41:14.978Z,12.33
2018-03-15T21:43:54.135Z,12.10
2018-03-15T21:46:23.180Z,12.97
2018-03-15T21:48:59.909Z,12.27
2018-03-15T21:51:28.957Z,12.30
2018-03-15T21:54:11.375Z,12.90
2018-03-15T21:59:15.613Z,14.55
2018-03-15T22:01:48.259Z,13.88
2018-03-15T22:04:40.400Z,12.80
2018-03-15T22:07:09.430Z,13.00
2018-03-15T22:09:44.116Z,11.97
2018-03-15T22:12:13.148Z,12.70
2018-03-15T22:14:42.271Z,10.57
2018-03-15T22:17:12.355Z,13.00
2018-03-15T22:19:41.402Z,12.23
2018-03-15T22:22:10.447Z,11.37
2018-03-15T22:24:39.665Z,13.43
2018-03-15T22:29:43.900Z,13.50
2018-03-15T22:34:48.163Z,14.23
2018-03-15T22:37:26.823Z,12.20
2018-03-15T22:45:09.536Z,14.38
2018-03-15T22:47:38.568Z,14.00
2018-03-15T22:50:17.228Z,14.07
2018-03-15T22:52:46.277Z,12.57
2018-03-15T22:55:15.324Z,12.80
2018-03-15T22:57:44.411Z,13.90
2018-03-15T23:00:13.557Z,13.93
2018-03-15T23:02:42.606Z,14.20
2018-03-15T23:05:12.614Z,14.60
2018-03-15T23:07:41.674Z,13.57
2018-03-15T23:10:14.908Z,14.40
2018-03-15T23:12:44.080Z,13.70
2018-03-15T23:17:48.427Z,16.20
2018-03-15T23:20:32.120Z,14.90
2018-03-15T23:23:03.439Z,13.13
2018-03-15T23:25:32.568Z,12.90
2018-03-15T23:30:36.799Z,15.00
2018-03-15T23:35:41.082Z,14.60
2018-03-15T23:38:24.932Z,15.15
2018-03-15T23:40:54.880Z,14.25
2018-03-15T23:43:32.047Z,11.73
2018-03-15T23:46:01.200Z,11.80
2018-03-15T23:48:30.248Z,10.23
2018-03-15T23:50:59.321Z,11.00
2018-03-15T23:56:03.610Z,12.80
2018-03-15T23:58:33.572Z,11.77
